sensor_id;sensor_type;location;lat;lon;timestamp;noise_LAeq;noise_LA_min;noise_LA_max;noise_LA01;noise_LA95
77361;Laerm;66427;51.798;10.954;2023-08-12T00:00:09;29.57;27.83;41.41;;
77361;Laerm;66427;51.798;10.954;2023-08-12T00:02:38;29.47;27.91;35.41;;
77361;Laerm;66427;51.798;10.954;2023-08-12T00:05:04;30.27;27.92;40.13;;
77361;Laerm;66427;51.798;10.954;2023-08-12T00:07:30;34.54;28.16;46.46;;
77361;Laerm;66427;51.798;10.954;2023-08-12T00:09:55;31.40;28.92;40.94;;
77361;Laerm;66427;51.798;10.954;2023-08-12T00:12:21;29.27;27.51;34.76;;
77361;Laerm;66427;51.798;10.954;2023-08-12T00:14:46;30.45;28.00;37.34;;
77361;Laerm;66427;51.798;10.954;2023-08-12T00:17:12;32.14;29.19;39.45;;
77361;Laerm;66427;51.798;10.954;2023-08-12T00:19:37;30.18;28.78;39.41;;
77361;Laerm;66427;51.798;10.954;2023-08-12T00:22:02;32.42;28.41;40.59;;
77361;Laerm;66427;51.798;10.954;2023-08-12T00:24:29;32.43;29.82;38.65;;
77361;Laerm;66427;51.798;10.954;2023-08-12T00:26:54;33.59;30.91;36.97;;
77361;Laerm;66427;51.798;10.954;2023-08-12T00:29:20;33.00;30.62;36.66;;
77361;Laerm;66427;51.798;10.954;2023-08-12T00:31:46;45.26;28.29;60.99;;
77361;Laerm;66427;51.798;10.954;2023-08-12T00:34:11;49.95;28.52;66.67;;
77361;Laerm;66427;51.798;10.954;2023-08-12T00:36:37;29.94;27.73;34.71;;
77361;Laerm;66427;51.798;10.954;2023-08-12T00:39:02;29.69;27.79;35.39;;
77361;Laerm;66427;51.798;10.954;2023-08-12T00:41:29;28.84;27.70;33.94;;
77361;Laerm;66427;51.798;10.954;2023-08-12T00:43:54;29.48;27.98;33.05;;
77361;Laerm;66427;51.798;10.954;2023-08-12T00:46:19;30.04;27.84;36.18;;
77361;Laerm;66427;51.798;10.954;2023-08-12T00:48:45;30.40;28.19;35.85;;
77361;Laerm;66427;51.798;10.954;2023-08-12T00:51:10;28.38;27.67;30.56;;
77361;Laerm;66427;51.798;10.954;2023-08-12T00:53:36;28.46;27.39;33.77;;
77361;Laerm;66427;51.798;10.954;2023-08-12T00:56:02;28.78;27.39;36.33;;
77361;Laerm;66427;51.798;10.954;2023-08-12T00:58:27;37.98;27.84;49.34;;
77361;Laerm;66427;51.798;10.954;2023-08-12T01:00:54;28.69;27.49;31.84;;
77361;Laerm;66427;51.798;10.954;2023-08-12T01:03:20;29.12;27.58;47.27;;
77361;Laerm;66427;51.798;10.954;2023-08-12T01:05:46;57.85;27.45;82.90;;
77361;Laerm;66427;51.798;10.954;2023-08-12T01:08:11;28.26;27.50;31.26;;
77361;Laerm;66427;51.798;10.954;2023-08-12T01:10:37;28.36;27.45;30.47;;
77361;Laerm;66427;51.798;10.954;2023-08-12T01:13:22;37.99;27.93;59.35;;
77361;Laerm;66427;51.798;10.954;2023-08-12T01:15:51;31.75;27.84;42.55;;
77361;Laerm;66427;51.798;10.954;2023-08-12T01:18:19;30.80;28.09;36.85;;
77361;Laerm;66427;51.798;10.954;2023-08-12T01:20:44;30.97;27.67;38.19;;
77361;Laerm;66427;51.798;10.954;2023-08-12T01:25:36;29.55;27.70;38.20;;
77361;Laerm;66427;51.798;10.954;2023-08-12T01:28:02;33.68;27.87;42.37;;
77361;Laerm;66427;51.798;10.954;2023-08-12T01:30:27;30.82;27.80;40.29;;
77361;Laerm;66427;51.798;10.954;2023-08-12T01:32:57;30.64;28.20;38.39;;
77361;Laerm;66427;51.798;10.954;2023-08-12T01:35:32;29.60;27.68;36.07;;
77361;Laerm;66427;51.798;10.954;2023-08-12T01:38:01;31.15;28.29;43.21;;
77361;Laerm;66427;51.798;10.954;2023-08-12T01:40:28;32.35;28.06;41.29;;
77361;Laerm;66427;51.798;10.954;2023-08-12T01:42:54;29.54;27.80;36.67;;
77361;Laerm;66427;51.798;10.954;2023-08-12T01:45:19;31.59;28.90;38.68;;
77361;Laerm;66427;51.798;10.954;2023-08-12T01:47:45;29.05;27.86;32.36;;
77361;Laerm;66427;51.798;10.954;2023-08-12T01:50:10;29.81;27.67;38.29;;
77361;Laerm;66427;51.798;10.954;2023-08-12T01:52:36;29.88;28.12;34.10;;
77361;Laerm;66427;51.798;10.954;2023-08-12T01:55:01;29.40;27.84;38.33;;
77361;Laerm;66427;51.798;10.954;2023-08-12T01:57:27;30.96;27.61;36.93;;
77361;Laerm;66427;51.798;10.954;2023-08-12T01:59:52;32.94;27.63;46.58;;
77361;Laerm;66427;51.798;10.954;2023-08-12T02:02:17;35.77;30.57;44.18;;
77361;Laerm;66427;51.798;10.954;2023-08-12T02:04:43;34.22;27.40;45.46;;
77361;Laerm;66427;51.798;10.954;2023-08-12T02:07:09;29.30;27.25;43.10;;
77361;Laerm;66427;51.798;10.954;2023-08-12T02:09:35;31.15;28.29;37.04;;
77361;Laerm;66427;51.798;10.954;2023-08-12T02:12:00;49.98;27.94;66.36;;
77361;Laerm;66427;51.798;10.954;2023-08-12T02:14:25;29.17;27.66;34.49;;
77361;Laerm;66427;51.798;10.954;2023-08-12T02:16:51;28.34;27.51;31.64;;
77361;Laerm;66427;51.798;10.954;2023-08-12T02:19:16;28.73;27.46;34.54;;
77361;Laerm;66427;51.798;10.954;2023-08-12T02:21:42;31.25;28.62;37.04;;
77361;Laerm;66427;51.798;10.954;2023-08-12T02:24:07;30.19;28.13;40.67;;
77361;Laerm;66427;51.798;10.954;2023-08-12T02:26:33;33.59;28.19;50.22;;
77361;Laerm;66427;51.798;10.954;2023-08-12T02:28:58;30.51;28.35;35.74;;
77361;Laerm;66427;51.798;10.954;2023-08-12T02:31:24;30.19;28.01;39.52;;
77361;Laerm;66427;51.798;10.954;2023-08-12T02:33:50;29.99;28.17;37.68;;
77361;Laerm;66427;51.798;10.954;2023-08-12T02:36:15;46.76;28.48;61.53;;
77361;Laerm;66427;51.798;10.954;2023-08-12T02:38:40;39.05;29.63;49.15;;
77361;Laerm;66427;51.798;10.954;2023-08-12T02:41:06;32.70;28.35;40.93;;
77361;Laerm;66427;51.798;10.954;2023-08-12T02:43:31;30.60;27.65;38.57;;
77361;Laerm;66427;51.798;10.954;2023-08-12T02:45:57;31.43;27.83;43.74;;
77361;Laerm;66427;51.798;10.954;2023-08-12T02:48:22;31.00;27.76;39.71;;
77361;Laerm;66427;51.798;10.954;2023-08-12T02:50:47;34.43;28.03;49.13;;
77361;Laerm;66427;51.798;10.954;2023-08-12T02:53:13;30.26;28.45;36.98;;
77361;Laerm;66427;51.798;10.954;2023-08-12T02:55:38;28.54;27.39;37.25;;
77361;Laerm;66427;51.798;10.954;2023-08-12T02:58:04;30.11;27.68;42.58;;
77361;Laerm;66427;51.798;10.954;2023-08-12T03:00:29;29.85;27.67;36.93;;
77361;Laerm;66427;51.798;10.954;2023-08-12T03:02:54;29.08;27.69;40.64;;
77361;Laerm;66427;51.798;10.954;2023-08-12T03:05:20;32.43;28.04;41.55;;
77361;Laerm;66427;51.798;10.954;2023-08-12T03:07:46;32.53;27.89;41.57;;
77361;Laerm;66427;51.798;10.954;2023-08-12T03:10:12;33.55;27.97;47.97;;
77361;Laerm;66427;51.798;10.954;2023-08-12T03:12:37;37.99;29.40;47.22;;
77361;Laerm;66427;51.798;10.954;2023-08-12T03:15:03;34.46;28.67;44.57;;
77361;Laerm;66427;51.798;10.954;2023-08-12T03:17:28;41.81;29.94;57.94;;
77361;Laerm;66427;51.798;10.954;2023-08-12T03:19:54;45.50;29.88;60.56;;
77361;Laerm;66427;51.798;10.954;2023-08-12T03:22:19;38.36;30.86;51.32;;
77361;Laerm;66427;51.798;10.954;2023-08-12T03:24:45;47.68;28.86;65.03;;
77361;Laerm;66427;51.798;10.954;2023-08-12T03:27:10;45.16;30.11;65.04;;
77361;Laerm;66427;51.798;10.954;2023-08-12T03:29:35;33.37;29.87;40.13;;
77361;Laerm;66427;51.798;10.954;2023-08-12T03:32:01;45.79;30.96;60.42;;
77361;Laerm;66427;51.798;10.954;2023-08-12T03:34:28;37.79;30.61;51.55;;
77361;Laerm;66427;51.798;10.954;2023-08-12T03:36:53;36.77;31.32;44.03;;
77361;Laerm;66427;51.798;10.954;2023-08-12T03:39:18;35.92;30.28;47.26;;
77361;Laerm;66427;51.798;10.954;2023-08-12T03:41:44;32.79;29.95;39.52;;
77361;Laerm;66427;51.798;10.954;2023-08-12T03:44:09;43.67;31.90;57.10;;
77361;Laerm;66427;51.798;10.954;2023-08-12T03:46:34;46.68;31.69;61.37;;
77361;Laerm;66427;51.798;10.954;2023-08-12T03:49:00;38.01;31.72;47.47;;
77361;Laerm;66427;51.798;10.954;2023-08-12T03:51:25;49.70;33.34;61.41;;
77361;Laerm;66427;51.798;10.954;2023-08-12T03:53:50;42.54;30.89;66.43;;
77361;Laerm;66427;51.798;10.954;2023-08-12T03:56:16;49.42;33.35;62.99;;
77361;Laerm;66427;51.798;10.954;2023-08-12T03:58:44;51.98;30.87;69.21;;
77361;Laerm;66427;51.798;10.954;2023-08-12T04:01:10;34.84;31.76;42.00;;
77361;Laerm;66427;51.798;10.954;2023-08-12T04:03:35;52.59;31.22;66.91;;
77361;Laerm;66427;51.798;10.954;2023-08-12T04:06:00;47.46;31.15;63.33;;
77361;Laerm;66427;51.798;10.954;2023-08-12T04:08:26;34.35;31.55;45.30;;
77361;Laerm;66427;51.798;10.954;2023-08-12T04:10:51;46.46;31.96;61.89;;
77361;Laerm;66427;51.798;10.954;2023-08-12T04:13:17;48.86;32.32;65.53;;
77361;Laerm;66427;51.798;10.954;2023-08-12T04:15:42;35.79;32.92;44.49;;
77361;Laerm;66427;51.798;10.954;2023-08-12T04:18:08;46.31;31.71;61.92;;
77361;Laerm;66427;51.798;10.954;2023-08-12T04:20:33;37.60;33.76;43.88;;
77361;Laerm;66427;51.798;10.954;2023-08-12T04:22:59;37.88;34.52;42.60;;
77361;Laerm;66427;51.798;10.954;2023-08-12T04:25:24;50.76;33.53;66.73;;
77361;Laerm;66427;51.798;10.954;2023-08-12T04:27:50;38.76;32.86;47.77;;
77361;Laerm;66427;51.798;10.954;2023-08-12T04:30:16;38.18;33.31;47.12;;
77361;Laerm;66427;51.798;10.954;2023-08-12T04:32:41;52.17;34.61;67.99;;
77361;Laerm;66427;51.798;10.954;2023-08-12T04:35:07;46.59;33.09;62.10;;
77361;Laerm;66427;51.798;10.954;2023-08-12T04:37:33;38.75;33.11;52.45;;
77361;Laerm;66427;51.798;10.954;2023-08-12T04:39:58;46.33;35.13;60.42;;
77361;Laerm;66427;51.798;10.954;2023-08-12T04:42:24;51.95;34.80;68.29;;
77361;Laerm;66427;51.798;10.954;2023-08-12T04:44:49;40.45;34.97;45.95;;
77361;Laerm;66427;51.798;10.954;2023-08-12T04:47:15;47.45;34.71;62.56;;
77361;Laerm;66427;51.798;10.954;2023-08-12T04:49:40;39.35;35.95;49.01;;
77361;Laerm;66427;51.798;10.954;2023-08-12T04:52:05;46.14;35.59;60.76;;
77361;Laerm;66427;51.798;10.954;2023-08-12T04:54:32;37.50;34.43;45.71;;
77361;Laerm;66427;51.798;10.954;2023-08-12T04:57:00;41.18;34.63;55.92;;
77361;Laerm;66427;51.798;10.954;2023-08-12T04:59:25;55.73;33.99;72.99;;
77361;Laerm;66427;51.798;10.954;2023-08-12T05:01:50;41.53;33.94;58.73;;
77361;Laerm;66427;51.798;10.954;2023-08-12T05:04:16;51.46;31.70;66.18;;
77361;Laerm;66427;51.798;10.954;2023-08-12T05:06:41;37.19;31.90;46.81;;
77361;Laerm;66427;51.798;10.954;2023-08-12T05:09:07;36.26;33.27;44.44;;
77361;Laerm;66427;51.798;10.954;2023-08-12T05:11:32;49.12;34.22;66.41;;
77361;Laerm;66427;51.798;10.954;2023-08-12T05:13:57;37.37;34.40;43.27;;
77361;Laerm;66427;51.798;10.954;2023-08-12T05:16:23;46.33;33.99;61.54;;
77361;Laerm;66427;51.798;10.954;2023-08-12T05:18:48;52.99;36.28;66.60;;
77361;Laerm;66427;51.798;10.954;2023-08-12T05:21:13;40.50;37.16;53.23;;
77361;Laerm;66427;51.798;10.954;2023-08-12T05:23:39;49.61;36.76;62.64;;
77361;Laerm;66427;51.798;10.954;2023-08-12T05:26:04;52.65;39.54;67.61;;
77361;Laerm;66427;51.798;10.954;2023-08-12T05:28:29;47.91;39.88;60.34;;
77361;Laerm;66427;51.798;10.954;2023-08-12T05:30:55;50.63;44.52;67.46;;
77361;Laerm;66427;51.798;10.954;2023-08-12T05:33:21;56.95;50.75;70.76;;
77361;Laerm;66427;51.798;10.954;2023-08-12T05:35:49;56.16;51.72;67.84;;
77361;Laerm;66427;51.798;10.954;2023-08-12T05:38:14;56.59;50.30;71.86;;
77361;Laerm;66427;51.798;10.954;2023-08-12T05:40:40;54.75;45.75;71.01;;
77361;Laerm;66427;51.798;10.954;2023-08-12T05:43:05;54.54;42.89;69.99;;
77361;Laerm;66427;51.798;10.954;2023-08-12T05:45:31;53.72;40.94;71.12;;
77361;Laerm;66427;51.798;10.954;2023-08-12T05:48:00;56.99;40.96;72.63;;
77361;Laerm;66427;51.798;10.954;2023-08-12T05:50:30;41.58;37.43;48.38;;
77361;Laerm;66427;51.798;10.954;2023-08-12T05:52:55;51.36;36.80;68.62;;
77361;Laerm;66427;51.798;10.954;2023-08-12T05:55:21;52.42;36.70;69.42;;
77361;Laerm;66427;51.798;10.954;2023-08-12T05:57:46;59.64;38.73;72.51;;
77361;Laerm;66427;51.798;10.954;2023-08-12T06:00:12;54.26;35.82;70.02;;
77361;Laerm;66427;51.798;10.954;2023-08-12T06:02:37;51.10;35.12;65.69;;
77361;Laerm;66427;51.798;10.954;2023-08-12T06:05:03;56.13;36.99;69.37;;
77361;Laerm;66427;51.798;10.954;2023-08-12T06:07:28;49.62;34.17;68.63;;
77361;Laerm;66427;51.798;10.954;2023-08-12T06:09:54;53.84;33.29;69.16;;
77361;Laerm;66427;51.798;10.954;2023-08-12T06:12:19;55.11;32.48;68.34;;
77361;Laerm;66427;51.798;10.954;2023-08-12T06:14:45;38.46;31.98;48.17;;
77361;Laerm;66427;51.798;10.954;2023-08-12T06:17:10;39.06;32.36;49.99;;
77361;Laerm;66427;51.798;10.954;2023-08-12T06:19:35;58.27;34.32;70.21;;
77361;Laerm;66427;51.798;10.954;2023-08-12T06:22:01;42.26;34.84;60.50;;
77361;Laerm;66427;51.798;10.954;2023-08-12T06:24:26;54.45;34.62;68.81;;
77361;Laerm;66427;51.798;10.954;2023-08-12T06:26:52;54.38;37.34;68.98;;
77361;Laerm;66427;51.798;10.954;2023-08-12T06:29:17;47.77;40.82;61.77;;
77361;Laerm;66427;51.798;10.954;2023-08-12T06:31:42;55.12;39.77;65.59;;
77361;Laerm;66427;51.798;10.954;2023-08-12T06:34:08;57.46;38.55;71.47;;
77361;Laerm;66427;51.798;10.954;2023-08-12T06:36:33;50.81;35.12;68.33;;
77361;Laerm;66427;51.798;10.954;2023-08-12T06:38:59;50.14;35.01;64.08;;
77361;Laerm;66427;51.798;10.954;2023-08-12T06:41:24;44.36;33.44;57.90;;
77361;Laerm;66427;51.798;10.954;2023-08-12T06:43:49;41.41;34.71;53.95;;
77361;Laerm;66427;51.798;10.954;2023-08-12T06:46:15;52.28;36.56;63.93;;
77361;Laerm;66427;51.798;10.954;2023-08-12T06:48:42;53.70;35.78;67.69;;
77361;Laerm;66427;51.798;10.954;2023-08-12T06:51:07;47.89;33.48;65.35;;
77361;Laerm;66427;51.798;10.954;2023-08-12T06:53:38;44.64;34.59;58.88;;
77361;Laerm;66427;51.798;10.954;2023-08-12T06:56:04;40.43;33.64;53.23;;
77361;Laerm;66427;51.798;10.954;2023-08-12T06:58:30;48.70;34.47;63.59;;
77361;Laerm;66427;51.798;10.954;2023-08-12T07:00:55;45.12;34.76;58.48;;
77361;Laerm;66427;51.798;10.954;2023-08-12T07:03:21;55.01;34.35;69.20;;
77361;Laerm;66427;51.798;10.954;2023-08-12T07:05:47;51.56;33.82;69.00;;
77361;Laerm;66427;51.798;10.954;2023-08-12T07:08:12;49.62;34.63;63.69;;
77361;Laerm;66427;51.798;10.954;2023-08-12T07:10:41;49.00;34.24;67.99;;
77361;Laerm;66427;51.798;10.954;2023-08-12T07:13:06;54.27;31.69;70.27;;
77361;Laerm;66427;51.798;10.954;2023-08-12T07:15:32;53.45;32.35;64.99;;
77361;Laerm;66427;51.798;10.954;2023-08-12T07:17:57;51.88;34.10;65.95;;
77361;Laerm;66427;51.798;10.954;2023-08-12T07:20:25;54.04;32.61;68.02;;
77361;Laerm;66427;51.798;10.954;2023-08-12T07:22:51;47.14;32.44;64.61;;
77361;Laerm;66427;51.798;10.954;2023-08-12T07:25:17;55.80;35.86;66.34;;
77361;Laerm;66427;51.798;10.954;2023-08-12T07:27:42;54.04;35.89;65.78;;
77361;Laerm;66427;51.798;10.954;2023-08-12T07:30:08;53.89;34.72;66.44;;
77361;Laerm;66427;51.798;10.954;2023-08-12T07:32:34;49.37;34.04;63.85;;
77361;Laerm;66427;51.798;10.954;2023-08-12T07:34:59;59.28;34.69;74.74;;
77361;Laerm;66427;51.798;10.954;2023-08-12T07:37:25;38.40;35.38;54.24;;
77361;Laerm;66427;51.798;10.954;2023-08-12T07:39:50;53.92;35.16;65.26;;
77361;Laerm;66427;51.798;10.954;2023-08-12T07:42:16;55.59;37.75;64.81;;
77361;Laerm;66427;51.798;10.954;2023-08-12T07:44:41;50.40;36.03;63.94;;
77361;Laerm;66427;51.798;10.954;2023-08-12T07:47:06;54.81;37.11;66.93;;
77361;Laerm;66427;51.798;10.954;2023-08-12T07:49:32;54.66;37.77;67.52;;
77361;Laerm;66427;51.798;10.954;2023-08-12T07:51:57;51.92;37.29;64.44;;
77361;Laerm;66427;51.798;10.954;2023-08-12T07:54:23;56.35;36.64;66.63;;
77361;Laerm;66427;51.798;10.954;2023-08-12T07:56:48;39.17;35.46;57.47;;
77361;Laerm;66427;51.798;10.954;2023-08-12T07:59:13;51.24;36.32;62.56;;
77361;Laerm;66427;51.798;10.954;2023-08-12T08:01:39;49.85;37.89;62.56;;
77361;Laerm;66427;51.798;10.954;2023-08-12T08:04:04;54.42;36.55;68.56;;
77361;Laerm;66427;51.798;10.954;2023-08-12T08:06:30;55.03;36.51;66.87;;
77361;Laerm;66427;51.798;10.954;2023-08-12T08:08:55;52.90;38.55;64.63;;
77361;Laerm;66427;51.798;10.954;2023-08-12T08:11:21;49.31;36.86;63.67;;
77361;Laerm;66427;51.798;10.954;2023-08-12T08:13:46;58.86;37.80;78.91;;
77361;Laerm;66427;51.798;10.954;2023-08-12T08:16:12;55.32;36.80;66.43;;
77361;Laerm;66427;51.798;10.954;2023-08-12T08:18:37;61.20;36.60;77.88;;
77361;Laerm;66427;51.798;10.954;2023-08-12T08:21:03;51.85;37.30;63.96;;
77361;Laerm;66427;51.798;10.954;2023-08-12T08:23:28;52.84;36.46;66.27;;
77361;Laerm;66427;51.798;10.954;2023-08-12T08:25:53;57.25;36.53;69.21;;
77361;Laerm;66427;51.798;10.954;2023-08-12T08:28:19;52.56;35.56;66.40;;
77361;Laerm;66427;51.798;10.954;2023-08-12T08:30:44;58.44;37.74;70.99;;
77361;Laerm;66427;51.798;10.954;2023-08-12T08:33:09;55.37;35.81;70.27;;
77361;Laerm;66427;51.798;10.954;2023-08-12T08:35:35;48.04;35.08;61.25;;
77361;Laerm;66427;51.798;10.954;2023-08-12T08:38:00;54.89;36.31;64.48;;
77361;Laerm;66427;51.798;10.954;2023-08-12T08:40:26;51.89;35.22;71.08;;
77361;Laerm;66427;51.798;10.954;2023-08-12T08:42:52;60.15;32.77;73.39;;
77361;Laerm;66427;51.798;10.954;2023-08-12T08:45:18;53.92;33.23;65.51;;
77361;Laerm;66427;51.798;10.954;2023-08-12T08:47:45;56.26;33.23;72.78;;
77361;Laerm;66427;51.798;10.954;2023-08-12T08:50:12;52.73;37.43;64.89;;
77361;Laerm;66427;51.798;10.954;2023-08-12T08:52:38;49.06;34.45;65.59;;
77361;Laerm;66427;51.798;10.954;2023-08-12T08:55:03;51.34;34.86;66.84;;
77361;Laerm;66427;51.798;10.954;2023-08-12T08:57:29;44.10;33.36;56.97;;
77361;Laerm;66427;51.798;10.954;2023-08-12T08:59:55;46.61;35.71;61.27;;
77361;Laerm;66427;51.798;10.954;2023-08-12T09:02:20;58.57;37.66;70.90;;
77361;Laerm;66427;51.798;10.954;2023-08-12T09:04:46;52.06;36.68;63.56;;
77361;Laerm;66427;51.798;10.954;2023-08-12T09:07:12;49.42;37.40;61.38;;
77361;Laerm;66427;51.798;10.954;2023-08-12T09:09:39;55.51;36.26;66.43;;
77361;Laerm;66427;51.798;10.954;2023-08-12T09:12:07;50.98;34.18;66.07;;
77361;Laerm;66427;51.798;10.954;2023-08-12T09:14:33;52.44;35.86;65.96;;
77361;Laerm;66427;51.798;10.954;2023-08-12T09:16:59;54.57;35.05;65.28;;
77361;Laerm;66427;51.798;10.954;2023-08-12T09:19:25;53.00;34.20;66.72;;
77361;Laerm;66427;51.798;10.954;2023-08-12T09:21:53;56.94;36.57;70.58;;
77361;Laerm;66427;51.798;10.954;2023-08-12T09:24:23;51.00;33.78;65.39;;
77361;Laerm;66427;51.798;10.954;2023-08-12T09:26:51;54.06;35.73;63.60;;
77361;Laerm;66427;51.798;10.954;2023-08-12T09:29:16;50.97;34.57;62.75;;
77361;Laerm;66427;51.798;10.954;2023-08-12T09:31:42;48.94;34.68;66.07;;
77361;Laerm;66427;51.798;10.954;2023-08-12T09:45:31;56.98;35.18;72.56;;
77361;Laerm;66427;51.798;10.954;2023-08-12T09:47:57;55.66;34.65;71.24;;
77361;Laerm;66427;51.798;10.954;2023-08-12T09:50:24;53.42;35.14;65.52;;
77361;Laerm;66427;51.798;10.954;2023-08-12T09:52:50;53.72;35.57;65.89;;
77361;Laerm;66427;51.798;10.954;2023-08-12T09:55:16;51.28;35.91;65.27;;
77361;Laerm;66427;51.798;10.954;2023-08-12T09:57:43;55.51;36.49;67.67;;
77361;Laerm;66427;51.798;10.954;2023-08-12T10:00:10;50.47;35.54;66.61;;
77361;Laerm;66427;51.798;10.954;2023-08-12T10:02:42;54.43;36.98;65.13;;
77361;Laerm;66427;51.798;10.954;2023-08-12T10:05:08;53.79;38.95;66.12;;
77361;Laerm;66427;51.798;10.954;2023-08-12T10:07:36;39.35;36.06;48.12;;
77361;Laerm;66427;51.798;10.954;2023-08-12T10:10:02;38.95;34.45;53.16;;
77361;Laerm;66427;51.798;10.954;2023-08-12T10:12:30;52.61;37.07;64.78;;
77361;Laerm;66427;51.798;10.954;2023-08-12T10:14:57;46.91;34.29;59.59;;
77361;Laerm;66427;51.798;10.954;2023-08-12T10:17:26;55.67;34.81;66.77;;
77361;Laerm;66427;51.798;10.954;2023-08-12T10:19:55;49.64;35.17;62.19;;
77361;Laerm;66427;51.798;10.954;2023-08-12T10:22:21;54.66;35.88;66.81;;
77361;Laerm;66427;51.798;10.954;2023-08-12T10:24:46;60.25;35.16;77.42;;
77361;Laerm;66427;51.798;10.954;2023-08-12T10:27:12;55.40;38.79;69.27;;
77361;Laerm;66427;51.798;10.954;2023-08-12T10:29:38;51.61;36.13;64.36;;
77361;Laerm;66427;51.798;10.954;2023-08-12T10:32:03;44.96;35.93;57.46;;
77361;Laerm;66427;51.798;10.954;2023-08-12T10:34:28;39.09;35.88;49.78;;
77361;Laerm;66427;51.798;10.954;2023-08-12T10:36:54;60.93;35.82;76.54;;
77361;Laerm;66427;51.798;10.954;2023-08-12T10:39:24;58.46;36.24;77.26;;
77361;Laerm;66427;51.798;10.954;2023-08-12T10:41:51;46.06;34.91;59.77;;
77361;Laerm;66427;51.798;10.954;2023-08-12T10:44:19;50.32;37.89;66.79;;
77361;Laerm;66427;51.798;10.954;2023-08-12T10:46:52;42.71;35.39;58.21;;
77361;Laerm;66427;51.798;10.954;2023-08-12T10:49:20;55.06;39.63;66.52;;
77361;Laerm;66427;51.798;10.954;2023-08-12T10:51:52;53.39;40.70;65.75;;
77361;Laerm;66427;51.798;10.954;2023-08-12T10:54:21;48.33;38.93;60.16;;
77361;Laerm;66427;51.798;10.954;2023-08-12T11:02:19;52.37;36.35;68.59;;
77361;Laerm;66427;51.798;10.954;2023-08-12T11:04:54;44.48;36.05;58.68;;
77361;Laerm;66427;51.798;10.954;2023-08-12T11:07:22;53.67;37.06;73.41;;
77361;Laerm;66427;51.798;10.954;2023-08-12T11:09:52;51.39;36.96;65.91;;
77361;Laerm;66427;51.798;10.954;2023-08-12T11:12:27;47.18;35.61;61.44;;
77361;Laerm;66427;51.798;10.954;2023-08-12T11:14:58;43.62;37.26;57.73;;
77361;Laerm;66427;51.798;10.954;2023-08-12T11:17:28;50.34;36.67;65.86;;
77361;Laerm;66427;51.798;10.954;2023-08-12T11:19:54;52.90;37.33;68.10;;
77361;Laerm;66427;51.798;10.954;2023-08-12T11:22:21;52.69;39.17;68.81;;
77361;Laerm;66427;51.798;10.954;2023-08-12T11:24:49;48.87;37.09;61.55;;
77361;Laerm;66427;51.798;10.954;2023-08-12T11:27:14;50.72;36.67;62.96;;
77361;Laerm;66427;51.798;10.954;2023-08-12T11:29:42;49.64;36.99;58.54;;
77361;Laerm;66427;51.798;10.954;2023-08-12T11:32:07;50.54;37.91;63.86;;
77361;Laerm;66427;51.798;10.954;2023-08-12T11:34:33;55.20;37.02;68.05;;
77361;Laerm;66427;51.798;10.954;2023-08-12T11:36:58;56.63;39.76;70.11;;
77361;Laerm;66427;51.798;10.954;2023-08-12T11:39:24;55.85;35.87;66.87;;
77361;Laerm;66427;51.798;10.954;2023-08-12T11:41:49;51.01;37.86;71.54;;
77361;Laerm;66427;51.798;10.954;2023-08-12T11:44:15;43.37;37.61;54.44;;
77361;Laerm;66427;51.798;10.954;2023-08-12T11:46:41;47.98;36.78;62.71;;
77361;Laerm;66427;51.798;10.954;2023-08-12T11:49:06;50.45;35.83;63.15;;
77361;Laerm;66427;51.798;10.954;2023-08-12T11:51:33;43.37;33.50;56.79;;
77361;Laerm;66427;51.798;10.954;2023-08-12T11:53:59;49.82;33.56;63.34;;
77361;Laerm;66427;51.798;10.954;2023-08-12T11:56:24;51.19;33.12;66.03;;
77361;Laerm;66427;51.798;10.954;2023-08-12T11:58:51;49.05;32.99;66.67;;
77361;Laerm;66427;51.798;10.954;2023-08-12T12:01:22;51.46;34.52;65.02;;
77361;Laerm;66427;51.798;10.954;2023-08-12T12:03:53;50.38;34.48;65.00;;
77361;Laerm;66427;51.798;10.954;2023-08-12T12:06:28;50.16;34.55;64.54;;
77361;Laerm;66427;51.798;10.954;2023-08-12T12:08:56;48.02;34.52;64.31;;
77361;Laerm;66427;51.798;10.954;2023-08-12T12:11:24;46.38;34.41;61.02;;
77361;Laerm;66427;51.798;10.954;2023-08-12T12:13:50;49.87;32.92;65.04;;
77361;Laerm;66427;51.798;10.954;2023-08-12T12:16:15;54.13;33.85;72.97;;
77361;Laerm;66427;51.798;10.954;2023-08-12T12:18:41;44.50;33.32;59.38;;
77361;Laerm;66427;51.798;10.954;2023-08-12T12:21:06;51.47;33.81;63.35;;
77361;Laerm;66427;51.798;10.954;2023-08-12T12:26:00;49.77;32.97;64.10;;
77361;Laerm;66427;51.798;10.954;2023-08-12T12:28:27;48.75;32.65;65.24;;
77361;Laerm;66427;51.798;10.954;2023-08-12T12:30:55;47.38;32.30;63.34;;
77361;Laerm;66427;51.798;10.954;2023-08-12T12:33:20;48.92;33.65;61.74;;
77361;Laerm;66427;51.798;10.954;2023-08-12T12:35:46;57.31;37.28;73.07;;
77361;Laerm;66427;51.798;10.954;2023-08-12T12:38:11;47.46;36.60;62.08;;
77361;Laerm;66427;51.798;10.954;2023-08-12T12:40:36;51.63;37.55;65.27;;
77361;Laerm;66427;51.798;10.954;2023-08-12T12:43:03;50.75;36.25;66.54;;
77361;Laerm;66427;51.798;10.954;2023-08-12T12:45:29;51.48;34.03;67.27;;
77361;Laerm;66427;51.798;10.954;2023-08-12T12:47:54;51.12;33.75;66.66;;
77361;Laerm;66427;51.798;10.954;2023-08-12T12:50:20;51.25;33.33;65.94;;
77361;Laerm;66427;51.798;10.954;2023-08-12T12:52:48;55.28;34.10;66.81;;
77361;Laerm;66427;51.798;10.954;2023-08-12T12:55:13;56.01;34.35;67.53;;
77361;Laerm;66427;51.798;10.954;2023-08-12T12:57:38;53.43;32.39;69.54;;
77361;Laerm;66427;51.798;10.954;2023-08-12T13:00:04;55.44;32.09;69.01;;
77361;Laerm;66427;51.798;10.954;2023-08-12T13:02:30;41.54;33.68;57.91;;
77361;Laerm;66427;51.798;10.954;2023-08-12T13:04:55;53.76;35.98;66.00;;
77361;Laerm;66427;51.798;10.954;2023-08-12T13:07:21;49.00;34.17;62.26;;
77361;Laerm;66427;51.798;10.954;2023-08-12T13:09:46;52.44;34.74;67.27;;
77361;Laerm;66427;51.798;10.954;2023-08-12T13:12:12;52.17;34.87;64.48;;
77361;Laerm;66427;51.798;10.954;2023-08-12T13:14:37;51.42;34.69;64.06;;
77361;Laerm;66427;51.798;10.954;2023-08-12T13:17:02;49.03;34.30;62.72;;
77361;Laerm;66427;51.798;10.954;2023-08-12T13:19:28;51.47;35.57;64.31;;
77361;Laerm;66427;51.798;10.954;2023-08-12T13:21:53;48.69;35.78;62.34;;
77361;Laerm;66427;51.798;10.954;2023-08-12T13:24:19;47.68;33.94;63.80;;
77361;Laerm;66427;51.798;10.954;2023-08-12T13:26:45;46.53;33.14;60.03;;
77361;Laerm;66427;51.798;10.954;2023-08-12T13:29:10;52.97;33.47;66.09;;
77361;Laerm;66427;51.798;10.954;2023-08-12T13:31:36;51.14;34.54;63.69;;
77361;Laerm;66427;51.798;10.954;2023-08-12T13:34:01;48.14;35.32;62.44;;
77361;Laerm;66427;51.798;10.954;2023-08-12T13:36:28;58.43;36.11;76.27;;
77361;Laerm;66427;51.798;10.954;2023-08-12T13:38:53;55.45;36.35;67.60;;
77361;Laerm;66427;51.798;10.954;2023-08-12T13:41:19;46.03;36.31;58.93;;
77361;Laerm;66427;51.798;10.954;2023-08-12T13:43:44;56.11;37.15;70.92;;
77361;Laerm;66427;51.798;10.954;2023-08-12T13:46:10;52.77;36.04;65.15;;